Decoded Metar for LFBH (LA ROCHELLE/LALE in FRANCE) (IATA:N/A) | Meteo·Mobile Aviation Weather
aviador You're here:

LFBH Decoded Metar

LA ROCHELLE/LALE in FRANCE
Report Time2018-11-18 02:00:00
UTC Time2018-11-18 02:34:18
Flight Rules vfr VFR
Wind100° at 10 kt
W.Decomp.*RWY 09: 9.8 kt HW 1.9 kt RCW
W.Rank100° ranks 36
Current wind is above 100° avg. (6.6)
Visibility9999 m
Phenomena:N/A
Clouds:N/A
Expected CloudBase > 800 ft AGL from Temp-Dew spread
CeilingNone
Temp07°C (ISA -8)
Dew Point05°C (87% RH)
AAT2.3°C
QNH1015 hPa
Density Alt-873 ft
Elevation33 ft
Report Wrong Elevation
Raw Report
LFBH 180200Z AUTO 10010KT CAVOK 07/05 Q1015 NOSIG=

Extra information for LFBH:More info

Metar Taf Metar & Taf Last 4 Metars F.Rules Stats Wind Profile Meteogram Temp Stats Airport Information Weather charts Add Link Nearby VenuesMetar ALERT Operation Metar Decoded Social comments